Time;durP1;ratioP1;P1;durP2;ratioP2;P2;SDS_P1;SDS_P2;PMS_P1;PMS_P2;Temp;Humidity;BMP_temperature;BMP_pressure;BME280_temperature;BME280_humidity;BME280_pressure;Samples;Min_cycle;Max_cycle;Signal;HPM_P1;HPM_P2
2023/09/23 00:01:38;;;;;;;0.20;0.20;;;;;;;;;;5021872;28;20061;-84
2023/09/23 00:04:04;;;;;;;0.15;0.15;;;;;;;;;;5025560;28;20527;-84
2023/09/23 00:06:29;;;;;;;0.20;0.20;;;;;;;;;;5038018;28;20033;-84
2023/09/23 00:08:55;;;;;;;0.20;0.20;;;;;;;12.21;nan;99847.44;5034682;28;20379;-85
2023/09/23 00:11:21;;;;;;;0.20;0.20;;;;;;;;;;5041803;28;20088;-85
2023/09/23 00:13:46;;;;;;;0.20;0.20;;;;;;;;;;5028742;28;20599;-84
2023/09/23 00:16:14;;;;;;;0.20;0.20;;;;;;;;;;5051742;28;20076;-84
2023/09/23 00:18:39;;;;;;;0.20;0.20;;;;;;;;;;5029820;28;20290;-83
2023/09/23 00:21:08;;;;;;;0.20;0.20;;;;;;;;;;5045134;28;20041;-85
2023/09/23 00:23:34;;;;;;;0.10;0.10;;;;;;;;;;5048268;28;20087;-83
2023/09/23 00:26:01;;;;;;;0.10;0.10;;;;;;;;;;5050175;28;20067;-86
2023/09/23 00:28:30;;;;;;;0.20;0.20;;;;;;;;;;5033769;28;20129;-84
2023/09/23 00:31:24;;;;;;;0.20;0.20;;;;;;;;;;5051588;28;20499;-83
2023/09/23 00:33:49;;;;;;;0.10;0.10;;;;;;;;;;5035578;28;20605;-85
2023/09/23 00:36:14;;;;;;;0.20;0.20;;;;;;;;;;5046163;28;20065;-85
2023/09/23 00:38:40;;;;;;;0.20;0.20;;;;;;;;;;5055801;28;20061;-86
2023/09/23 00:41:08;;;;;;;0.22;0.22;;;;;;;;;;5056902;28;20498;-84
2023/09/23 00:43:33;;;;;;;0.20;0.20;;;;;;;;;;5048355;28;20032;-84
2023/09/23 00:45:59;;;;;;;0.20;0.20;;;;;;;;;;5047627;28;20037;-82
2023/09/23 00:48:24;;;;;;;0.20;0.20;;;;;;;;;;5042625;28;20060;-83
2023/09/23 00:50:52;;;;;;;0.20;0.20;;;;;;;;;;5015974;28;20510;-84
2023/09/23 00:53:18;;;;;;;0.20;0.20;;;;;;;;;;5022109;28;20037;-84
2023/09/23 00:55:52;;;;;;;0.20;0.20;;;;;;;;;;5048654;28;20155;-84
2023/09/23 00:58:21;;;;;;;0.20;0.20;;;;;;;11.71;nan;99861.22;5043647;28;20528;-85
2023/09/23 01:00:47;;;;;;;0.20;0.20;;;;;;;;;;5034818;28;20042;-83
2023/09/23 01:03:12;;;;;;;0.20;0.20;;;;;;;;;;5041300;28;20062;-84
2023/09/23 01:05:39;;;;;;;0.20;0.20;;;;;;;;;;5025377;28;20091;-86
2023/09/23 01:08:05;;;;;;;0.20;0.20;;;;;;;;;;5037315;28;20042;-85
2023/09/23 01:10:30;;;;;;;0.20;0.20;;;;;;;;;;5037503;28;20097;-85
2023/09/23 01:12:56;;;;;;;0.20;0.20;;;;;;;;;;5020431;28;20445;-82
2023/09/23 01:15:25;;;;;;;0.10;0.10;;;;;;;11.69;nan;99943.47;5044834;28;20071;-85
2023/09/23 01:17:53;;;;;;;0.20;0.20;;;;;;;;;;5014631;28;20065;-84
2023/09/23 01:20:19;;;;;;;0.20;0.20;;;;;;;;;;5031527;28;20045;-85
2023/09/23 01:22:47;;;;;;;0.20;0.20;;;;;;;11.56;nan;99890.25;5044496;28;20044;-84
2023/09/23 01:25:12;;;;;;;0.20;0.20;;;;;;;;;;5037502;28;20034;-84
2023/09/23 01:27:37;;;;;;;0.20;0.20;;;;;;;;;;5016824;28;20080;-83
2023/09/23 01:30:05;;;;;;;0.20;0.20;;;;;;;;;;5025567;28;20118;-84
2023/09/23 01:32:57;;;;;;;0.20;0.20;;;;;;;;;;5034842;28;20418;-85
2023/09/23 01:35:22;;;;;;;;;;;;;;;;;;5026866;28;20187;-84
2023/09/23 01:37:59;;;;;;;0.20;0.20;;;;;;;;;;5019367;28;19967;-84
2023/09/23 01:40:29;;;;;;;0.20;0.20;;;;;;;;;;5020724;28;20037;-84
2023/09/23 01:42:54;;;;;;;0.20;0.20;;;;;;;;;;5033305;28;20045;-85
2023/09/23 01:45:22;;;;;;;0.20;0.20;;;;;;;;;;5030947;28;20163;-84
2023/09/23 01:47:48;;;;;;;0.20;0.20;;;;;;;;;;5040807;28;20056;-84
2023/09/23 01:50:13;;;;;;;0.20;0.20;;;;;;;;;;5032586;28;20513;-85
2023/09/23 01:52:40;;;;;;;0.20;0.20;;;;;;;;;;5033576;28;20037;-85
2023/09/23 01:55:06;;;;;;;0.20;0.20;;;;;;;;;;5051733;28;20094;-83
2023/09/23 01:57:34;;;;;;;0.20;0.20;;;;;;;;;;5033575;28;20045;-85
2023/09/23 02:00:00;;;;;;;0.20;0.20;;;;;;;;;;5054477;28;20064;-84
2023/09/23 02:02:26;;;;;;;0.20;0.20;;;;;;;;;;5036453;28;20037;-83
2023/09/23 02:04:51;;;;;;;0.20;0.20;;;;;;;;;;5020307;28;20043;-85
2023/09/23 02:07:17;;;;;;;0.20;0.20;;;;;;;11.94;nan;100033.44;5021312;28;20112;-85
2023/09/23 02:09:42;;;;;;;0.20;0.20;;;;;;;;;;5019968;28;20025;-85
2023/09/23 02:12:07;;;;;;;0.20;0.20;;;;;;;;;;5044953;28;20334;-85
2023/09/23 02:14:33;;;;;;;0.20;0.20;;;;;;;;;;5023827;28;20040;-84
2023/09/23 02:16:58;;;;;;;0.20;0.20;;;;;;;;;;5054440;28;20045;-84
2023/09/23 02:19:26;;;;;;;0.10;0.10;;;;;;;;;;5037106;28;20140;-85
2023/09/23 02:21:51;;;;;;;0.10;0.10;;;;;;;;;;5030693;28;20128;-84
2023/09/23 02:24:18;;;;;;;0.20;0.20;;;;;;;;;;5043631;28;20119;-84
2023/09/23 02:26:45;;;;;;;0.10;0.10;;;;;;;;;;5024388;28;20041;-85
2023/09/23 02:29:12;;;;;;;0.20;0.20;;;;;;;;;;5031911;28;20510;-85
2023/09/23 02:31:37;;;;;;;0.20;0.20;;;;;;;;;;5045199;28;20039;-84
2023/09/23 02:34:02;;;;;;;0.10;0.10;;;;;;;;;;5031241;28;20034;-85
2023/09/23 02:36:27;;;;;;;0.20;0.20;;;;;;;;;;5026228;28;20049;-85
2023/09/23 02:38:52;;;;;;;0.20;0.20;;;;;;;;;;5049295;28;20307;-84
2023/09/23 02:41:17;;;;;;;0.20;0.20;;;;;;;;;;5049530;28;20671;-85
2023/09/23 02:43:45;;;;;;;0.20;0.20;;;;;;;;;;5053670;28;20037;-85
2023/09/23 02:46:10;;;;;;;0.20;0.20;;;;;;;;;;5053117;28;20506;-85
2023/09/23 02:48:35;;;;;;;0.20;0.20;;;;;;;;;;5032013;28;20056;-84
2023/09/23 02:51:04;;;;;;;0.20;0.20;;;;;;;;;;5026143;28;20038;-84
2023/09/23 02:53:30;;;;;;;0.20;0.20;;;;;;;;;;5047814;28;20268;-84
2023/09/23 02:56:04;;;;;;;0.20;0.20;;;;;;;;;;5024220;28;20091;-84
2023/09/23 02:58:29;;;;;;;0.20;0.20;;;;;;;;;;5043350;28;20081;-84
2023/09/23 03:00:57;;;;;;;0.10;0.10;;;;;;;;;;5051925;28;20037;-84
2023/09/23 03:03:23;;;;;;;0.20;0.20;;;;;;;;;;5049481;28;20103;-85
2023/09/23 03:05:54;;;;;;;0.20;0.20;;;;;;;;;;5039673;28;20038;-84
2023/09/23 03:08:22;;;;;;;0.20;0.20;;;;;;;;;;5046199;28;20029;-84
2023/09/23 03:10:49;;;;;;;0.20;0.20;;;;;;;;;;5053105;28;20037;-84
2023/09/23 03:13:14;;;;;;;0.20;0.20;;;;;;;;;;5031479;28;20045;-84
2023/09/23 03:16:06;;;;;;;0.20;0.20;;;;;;;;;;5043750;28;20069;-83
2023/09/23 03:18:36;;;;;;;0.20;0.20;;;;;;;;;;5049615;28;20036;-82
2023/09/23 03:21:08;;;;;;;0.20;0.20;;;;;;;;;;5044851;28;20293;-82
2023/09/23 03:23:40;;;;;;;0.20;0.20;;;;;;;;;;5049270;28;20599;-83
2023/09/23 03:26:11;;;;;;;0.20;0.20;;;;;;;;;;5022841;28;20435;-84
2023/09/23 03:28:38;;;;;;;0.20;0.20;;;;;;;;;;5023677;28;21291;-83
2023/09/23 03:31:05;;;;;;;0.20;0.20;;;;;;;;;;5035183;28;20038;-82
2023/09/23 03:33:31;;;;;;;0.20;0.20;;;;;;;;;;5038706;28;20413;-83
2023/09/23 03:35:56;;;;;;;0.20;0.20;;;;;;;;;;5045454;28;20044;-83
2023/09/23 03:38:21;;;;;;;0.20;0.20;;;;;;;;;;5038577;28;20107;-84
2023/09/23 03:40:51;;;;;;;0.20;0.20;;;;;;;;;;5016469;28;20037;-84
2023/09/23 03:43:16;;;;;;;0.20;0.20;;;;;;;;;;5026653;28;20280;-83
2023/09/23 03:45:41;;;;;;;0.20;0.20;;;;;;;;;;5041168;28;20032;-83
2023/09/23 03:48:10;;;;;;;0.20;0.20;;;;;;;;;;5045457;28;20064;-85
2023/09/23 03:50:35;;;;;;;0.20;0.20;;;;;;;;;;5036239;28;20029;-84
2023/09/23 03:53:00;;;;;;;0.20;0.20;;;;;;;;;;5052080;28;20029;-85
2023/09/23 03:55:25;;;;;;;0.20;0.20;;;;;;;;;;5039851;28;20053;-85
2023/09/23 03:57:50;;;;;;;0.23;0.23;;;;;;;;;;5039035;28;20790;-85
2023/09/23 04:00:16;;;;;;;0.20;0.20;;;;;;;;;;5038959;28;20067;-86
2023/09/23 04:02:47;;;;;;;0.20;0.20;;;;;;;;;;5038930;28;20037;-83
2023/09/23 04:05:14;;;;;;;0.20;0.20;;;;;;;;;;5054429;28;20525;-84
2023/09/23 04:07:41;;;;;;;0.30;0.30;;;;;;;;;;5036759;28;20041;-85
2023/09/23 04:10:06;;;;;;;0.20;0.20;;;;;;;;;;5036718;28;20041;-83
2023/09/23 04:12:32;;;;;;;0.20;0.20;;;;;;;;;;5027905;28;20026;-84
2023/09/23 04:14:58;;;;;;;0.20;0.20;;;;;;;;;;5049195;28;20041;-84
2023/09/23 04:17:24;;;;;;;0.20;0.20;;;;;;;;;;5050213;28;20317;-83
2023/09/23 04:19:49;;;;;;;0.20;0.20;;;;;;;;;;5055817;28;20055;-84
2023/09/23 04:22:14;;;;;;;0.20;0.20;;;;;;;;;;5049008;28;20537;-84
2023/09/23 04:24:40;;;;;;;0.20;0.20;;;;;;;;;;5047009;28;20045;-85
2023/09/23 04:27:05;;;;;;;0.30;0.30;;;;;;;;;;5028209;28;20537;-84
2023/09/23 04:29:30;;;;;;;0.20;0.20;;;;;;;;;;5031406;28;20040;-85
2023/09/23 04:31:56;;;;;;;0.20;0.20;;;;;;;;;;5039084;28;20034;-85
2023/09/23 04:34:24;;;;;;;0.20;0.20;;;;;;;;;;5049403;28;20049;-83
2023/09/23 04:36:49;;;;;;;0.20;0.20;;;;;;;;;;5034996;28;20034;-83
2023/09/23 04:39:14;;;;;;;0.20;0.20;;;;;;;;;;5036226;28;20033;-85
2023/09/23 04:41:40;;;;;;;0.20;0.20;;;;;;;;;;5018529;28;20034;-85
2023/09/23 04:44:05;;;;;;;0.20;0.20;;;;;;;;;;5040212;28;20649;-85
2023/09/23 04:46:33;;;;;;;0.20;0.20;;;;;;;;;;5028464;28;20055;-85
2023/09/23 04:48:58;;;;;;;0.22;0.22;;;;;;;;;;5050527;28;20079;-85
2023/09/23 04:51:23;;;;;;;0.23;0.23;;;;;;;;;;5024116;28;20030;-85
2023/09/23 04:53:48;;;;;;;0.20;0.20;;;;;;;;;;5023861;28;20042;-85
2023/09/23 04:56:17;;;;;;;0.20;0.20;;;;;;;;;;5041859;28;20041;-83
2023/09/23 04:58:42;;;;;;;0.20;0.20;;;;;;;;;;5047258;28;20115;-86
2023/09/23 05:01:08;;;;;;;0.20;0.20;;;;;;;;;;5036323;28;20053;-85
2023/09/23 05:03:33;;;;;;;0.20;0.20;;;;;;;;;;5029613;28;20029;-84
2023/09/23 05:05:58;;;;;;;0.20;0.20;;;;;;;;;;5046176;28;20024;-85
2023/09/23 05:08:23;;;;;;;0.20;0.20;;;;;;;;;;5056224;28;20375;-83
2023/09/23 05:10:49;;;;;;;0.20;0.20;;;;;;;;;;5056465;28;20067;-85
2023/09/23 05:13:17;;;;;;;0.20;0.20;;;;;;;;;;5036405;28;20564;-85
2023/09/23 05:15:43;;;;;;;0.20;0.20;;;;;;;;;;5025244;28;20406;-85
2023/09/23 05:18:08;;;;;;;0.20;0.20;;;;;;;;;;5024404;28;20030;-85
2023/09/23 05:20:34;;;;;;;0.20;0.20;;;;;;;;;;5030883;28;20097;-85
2023/09/23 05:23:02;;;;;;;0.20;0.20;;;;;;;;;;5029514;28;20057;-85
2023/09/23 05:25:28;;;;;;;0.20;0.20;;;;;;;;;;5020012;28;20040;-84
2023/09/23 05:27:54;;;;;;;0.20;0.20;;;;;;;;;;5042118;28;20115;-84
2023/09/23 05:30:20;;;;;;;0.30;0.30;;;;;;;;;;5017374;28;20037;-85
2023/09/23 05:32:46;;;;;;;0.20;0.20;;;;;;;;;;5019488;28;20063;-84
2023/09/23 05:35:11;;;;;;;0.20;0.20;;;;;;;;;;5023194;28;20064;-85
2023/09/23 05:37:37;;;;;;;0.20;0.20;;;;;;;;;;5033490;28;20033;-85
2023/09/23 05:40:24;;;;;;;0.20;0.20;;;;;;;;;;5037533;28;20408;-84
2023/09/23 05:42:51;;;;;;;0.20;0.20;;;;;;;;;;5052693;28;20048;-84
2023/09/23 05:45:23;;;;;;;0.20;0.20;;;;;;;;;;5046044;28;20426;-85
2023/09/23 05:47:48;;;;;;;0.20;0.20;;;;;;;;;;5016555;28;20093;-85
2023/09/23 05:50:16;;;;;;;0.20;0.20;;;;;;;;;;5034204;28;20056;-84
2023/09/23 05:52:41;;;;;;;0.20;0.20;;;;;;;;;;5017558;28;20034;-85
2023/09/23 05:55:07;;;;;;;0.20;0.20;;;;;;;;;;5021859;28;20041;-85
2023/09/23 05:57:34;;;;;;;0.20;0.20;;;;;;;;;;5025754;28;20060;-84
2023/09/23 06:00:00;;;;;;;0.20;0.20;;;;;;;;;;5017580;28;20032;-84
2023/09/23 06:02:25;;;;;;;0.20;0.20;;;;;;;;;;5017457;28;20041;-85
2023/09/23 06:04:50;;;;;;;0.20;0.20;;;;;;;;;;5054674;28;20033;-85
2023/09/23 06:07:15;;;;;;;0.20;0.20;;;;;;;;;;5040609;28;20038;-85
2023/09/23 06:09:44;;;;;;;0.20;0.20;;;;;;;;;;5037869;28;20036;-85
2023/09/23 06:12:09;;;;;;;0.10;0.10;;;;;;;;;;5049864;28;20277;-84
2023/09/23 06:14:34;;;;;;;0.20;0.20;;;;;;;;;;5044176;28;20063;-84
2023/09/23 06:16:59;;;;;;;0.20;0.20;;;;;;;;;;5044216;28;20033;-84
2023/09/23 06:19:25;;;;;;;0.20;0.20;;;;;;;;;;5053531;28;20037;-84
2023/09/23 06:21:51;;;;;;;0.20;0.20;;;;;;;;;;5036991;28;20041;-85
2023/09/23 06:24:16;;;;;;;0.20;0.20;;;;;;;;;;5035845;28;20097;-85
2023/09/23 06:26:41;;;;;;;0.17;0.17;;;;;;;13.02;nan;100215.72;5033921;28;20057;-86
2023/09/23 06:29:07;;;;;;;0.10;0.10;;;;;;;;;;5039973;28;20029;-85
2023/09/23 06:31:32;;;;;;;0.10;0.10;;;;;;;;;;5034391;28;20029;-85
2023/09/23 06:33:57;;;;;;;0.15;0.15;;;;;;;;;;5031038;28;20037;-85
2023/09/23 06:36:22;;;;;;;0.20;0.20;;;;;;;;;;5038191;28;20095;-85
2023/09/23 06:38:51;;;;;;;0.20;0.20;;;;;;;;;;5051379;28;20041;-83
2023/09/23 06:41:16;;;;;;;0.20;0.20;;;;;;;;;;5039669;28;20502;-85
2023/09/23 06:43:41;;;;;;;0.20;0.20;;;;;;;;;;5032814;28;20032;-85
2023/09/23 06:46:07;;;;;;;0.20;0.20;;;;;;;;;;5027178;28;20041;-85
2023/09/23 06:48:32;;;;;;;0.10;0.10;;;;;;;13.73;nan;100250.88;5035624;28;20571;-85
2023/09/23 06:51:01;;;;;;;0.15;0.15;;;;;;;;;;5037109;28;20028;-85
2023/09/23 06:53:30;;;;;;;0.20;0.20;;;;;;;;;;5054494;28;20541;-85
2023/09/23 06:55:55;;;;;;;0.20;0.20;;;;;;;;;;5038474;28;20033;-84
2023/09/23 06:58:21;;;;;;;0.20;0.20;;;;;;;;;;5017897;28;20041;-85
2023/09/23 07:00:46;;;;;;;0.20;0.20;;;;;;;;;;5051373;28;20044;-86
2023/09/23 07:03:11;;;;;;;0.10;0.10;;;;;;;;;;5045459;28;20379;-85
2023/09/23 07:05:38;;;;;;;0.10;0.10;;;;;;;13.59;nan;100298.50;5037039;28;20720;-86
2023/09/23 07:08:03;;;;;;;0.20;0.20;;;;;;;13.59;nan;100404.78;5044122;28;20044;-85
2023/09/23 07:10:29;;;;;;;0.20;0.20;;;;;;;;;;5035595;28;20033;-85
2023/09/23 07:12:54;;;;;;;0.10;0.10;;;;;;;;;;5049259;28;20434;-84
2023/09/23 07:15:19;;;;;;;0.20;0.20;;;;;;;;;;5040111;28;20901;-85
2023/09/23 07:17:44;;;;;;;0.20;0.20;;;;;;;;;;5046933;28;20300;-85
2023/09/23 07:20:10;;;;;;;0.20;0.20;;;;;;;;;;5055064;28;20055;-86
2023/09/23 07:22:35;;;;;;;0.10;0.10;;;;;;;;;;5056520;28;20200;-85
2023/09/23 07:25:00;;;;;;;0.20;0.20;;;;;;;15.14;nan;100366.38;5050745;28;20093;-85
2023/09/23 07:27:26;;;;;;;0.15;0.15;;;;;;;;;;5026536;28;20048;-83
2023/09/23 07:29:51;;;;;;;0.20;0.20;;;;;;;;;;5038122;28;20040;-85
2023/09/23 07:32:16;;;;;;;0.20;0.20;;;;;;;15.88;nan;100316.38;5039150;28;20033;-85
2023/09/23 07:34:41;;;;;;;0.10;0.10;;;;;;;;;;5050276;28;20091;-85
2023/09/23 07:37:08;;;;;;;0.13;0.13;;;;;;;16.11;nan;100294.81;5026178;28;20049;-85
2023/09/23 07:39:34;;;;;;;0.20;0.20;;;;;;;;;;5042623;28;20099;-85
2023/09/23 07:41:59;;;;;;;0.20;0.20;;;;;;;;;;5042660;28;20029;-85
2023/09/23 07:44:24;;;;;;;0.10;0.10;;;;;;;16.19;nan;100322.38;5025337;28;21543;-84
2023/09/23 07:46:49;;;;;;;0.10;0.10;;;;;;;;;;5043465;28;20094;-84
2023/09/23 07:49:14;;;;;;;0.10;0.10;;;;;;;;;;5049113;28;20040;-85
2023/09/23 07:51:40;;;;;;;0.10;0.10;;;;;;;;;;5042772;28;20370;-85
2023/09/23 07:54:05;;;;;;;0.17;0.17;;;;;;;;;;5023839;28;20041;-84
2023/09/23 07:56:30;;;;;;;0.10;0.10;;;;;;;;;;5035040;28;20302;-86
2023/09/23 07:58:56;;;;;;;0.10;0.10;;;;;;;;;;5033985;28;20049;-85
2023/09/23 08:01:21;;;;;;;0.10;0.10;;;;;;;17.63;nan;100336.63;5024706;28;20041;-83
2023/09/23 08:03:46;;;;;;;0.10;0.10;;;;;;;;;;5032627;28;20041;-85
2023/09/23 08:06:12;;;;;;;0.10;0.10;;;;;;;;;;5048332;28;20281;-82
2023/09/23 08:08:37;;;;;;;0.10;0.10;;;;;;;22.42;100.00;87231.69;5026340;28;20033;-84
2023/09/23 08:11:02;;;;;;;0.10;0.10;;;;;;;;;;5030283;28;20524;-84
2023/09/23 08:13:28;;;;;;;0.10;0.10;;;;;;;18.75;nan;100363.63;5047052;28;20294;-84
2023/09/23 08:15:57;;;;;;;0.10;0.10;;;;;;;;;;5023236;28;20484;-83
2023/09/23 08:18:23;;;;;;;0.10;0.10;;;;;;;19.45;nan;100371.03;5027100;28;20056;-84
2023/09/23 08:20:54;;;;;;;0.10;0.10;;;;;;;;;;5047597;28;20072;-83
2023/09/23 08:23:19;;;;;;;0.10;0.10;;;;;;;;;;5046320;28;20037;-83
2023/09/23 08:25:44;;;;;;;0.10;0.10;;;;;;;20.04;nan;100369.88;5027074;28;20036;-84
2023/09/23 08:28:10;;;;;;;0.10;0.10;;;;;;;;;;5047839;28;20037;-85
2023/09/23 08:30:36;;;;;;;0.10;0.10;;;;;;;20.61;nan;100361.78;5043539;28;20268;-84
2023/09/23 08:33:01;;;;;;;0.10;0.10;;;;;;;;;;5018267;28;20049;-84
2023/09/23 08:35:26;;;;;;;0.10;0.10;;;;;;;21.12;nan;100392.06;5043123;28;20402;-84
2023/09/23 08:37:52;;;;;;;0.10;0.10;;;;;;;21.11;nan;100395.78;5028008;28;20038;-84
2023/09/23 08:40:19;;;;;;;0.08;0.08;;;;;;;21.26;nan;100408.84;5029173;28;20033;-84
2023/09/23 08:42:48;;;;;;;0.10;0.10;;;;;;;;;;5030936;28;20059;-84
2023/09/23 08:45:13;;;;;;;0.10;0.10;;;;;;;;;;5047443;28;20119;-84
2023/09/23 08:47:38;;;;;;;0.10;0.10;;;;;;;;;;5030120;28;20086;-84
2023/09/23 08:50:07;;;;;;;0.10;0.10;;;;;;;21.65;nan;100394.13;5045315;28;20402;-84
2023/09/23 08:52:33;;;;;;;0.10;0.10;;;;;;;22.04;nan;100379.22;5050339;28;20793;-85
2023/09/23 08:55:00;;;;;;;0.10;0.10;;;;;;;22.54;nan;100420.34;5048158;28;20040;-84
2023/09/23 08:57:25;;;;;;;0.10;0.10;;;;;;;23.15;nan;100415.53;5026005;28;20033;-84
2023/09/23 08:59:51;;;;;;;0.10;0.10;;;;;;;23.80;nan;100444.91;5050988;28;20040;-83
2023/09/23 09:02:22;;;;;;;0.10;0.10;;;;;;;23.95;nan;100399.31;5027541;28;20061;-85
2023/09/23 09:04:48;;;;;;;0.00;0.00;;;;;;;;;;5033313;28;20538;-86
2023/09/23 09:07:13;;;;;;;0.00;0.00;;;;;;;;;;5030449;28;20459;-83
2023/09/23 09:09:38;;;;;;;0.00;0.00;;;;;;;;;;5046679;28;20926;-83
2023/09/23 09:12:04;;;;;;;0.00;0.00;;;;;;;;;;5029407;28;20814;-85
2023/09/23 09:14:30;;;;;;;0.00;0.00;;;;;;;;;;5023736;28;20462;-85
2023/09/23 09:16:55;;;;;;;0.00;0.00;;;;;;;;;;5044801;28;20577;-85
2023/09/23 09:19:20;;;;;;;0.00;0.00;;;;;;;;;;5045602;28;20429;-84
2023/09/23 09:21:45;;;;;;;0.00;0.00;;;;;;;;;;5034580;28;20459;-84
2023/09/23 09:24:11;;;;;;;0.00;0.00;;;;;;;;;;5031225;28;20410;-84
2023/09/23 09:26:38;;;;;;;0.00;0.00;;;;;;;;;;5049025;28;20429;-85
2023/09/23 09:29:03;;;;;;;0.00;0.00;;;;;;;;;;5041640;28;20435;-85
2023/09/23 09:31:32;;;;;;;0.00;0.00;;;;;;;;;;5048397;28;20990;-85
2023/09/23 09:34:02;;;;;;;0.00;0.00;;;;;;;;;;5035173;28;20414;-85
2023/09/23 09:36:27;;;;;;;0.00;0.00;;;;;;;;;;5043778;28;20403;-85
2023/09/23 09:38:54;;;;;;;0.00;0.00;;;;;;;;;;5023481;28;20923;-85
2023/09/23 09:41:21;;;;;;;0.00;0.00;;;;;;;;;;5043460;28;20410;-85
2023/09/23 09:43:47;;;;;;;0.00;0.00;;;;;;;;;;5052801;28;20454;-84
2023/09/23 09:46:13;;;;;;;0.00;0.00;;;;;;;;;;5035910;28;20495;-84
2023/09/23 09:48:39;;;;;;;0.00;0.00;;;;;;;;;;5035254;28;20425;-84
2023/09/23 09:51:05;;;;;;;0.00;0.00;;;;;;;;;;5048840;28;20401;-84
2023/09/23 09:53:31;;;;;;;0.00;0.00;;;;;;;;;;5034872;28;20409;-86
2023/09/23 09:55:56;;;;;;;0.00;0.00;;;;;;;;;;5036387;28;20469;-85
2023/09/23 09:58:22;;;;;;;0.00;0.00;;;;;;;;;;5031065;28;20414;-84
2023/09/23 10:00:50;;;;;;;0.00;0.00;;;;;;;;;;5041699;28;20493;-84
2023/09/23 10:03:15;;;;;;;0.00;0.00;;;;;;;;;;5032866;28;20968;-84
2023/09/23 10:05:41;;;;;;;0.00;0.00;;;;;;;;;;5024965;28;20523;-85
2023/09/23 10:08:13;;;;;;;0.00;0.00;;;;;;;;;;5030353;28;21098;-85
2023/09/23 10:10:43;;;;;;;0.00;0.00;;;;;;;;;;5020547;28;20571;-83
2023/09/23 10:13:11;;;;;;;0.00;0.00;;;;;;;;;;5043927;28;20885;-83
2023/09/23 10:15:38;;;;;;;0.00;0.00;;;;;;;;;;5023938;28;20496;-85
2023/09/23 10:18:08;;;;;;;0.00;0.00;;;;;;;;;;5018537;28;20789;-84
2023/09/23 10:20:36;;;;;;;0.00;0.00;;;;;;;;;;5051873;28;20397;-84
2023/09/23 10:23:01;;;;;;;0.00;0.00;;;;;;;;;;5017899;28;20438;-84
2023/09/23 10:25:36;;;;;;;0.00;0.00;;;;;;;;;;5027435;28;20461;-86
2023/09/23 10:28:03;;;;;;;0.00;0.00;;;;;;;;;;5032715;28;20415;-83
2023/09/23 10:30:28;;;;;;;0.00;0.00;;;;;;;;;;5043127;28;20471;-83
2023/09/23 10:32:54;;;;;;;0.00;0.00;;;;;;;;;;5034531;28;20396;-82
2023/09/23 10:35:23;;;;;;;0.00;0.00;;;;;;;;;;5017685;28;20495;-84
2023/09/23 10:37:48;;;;;;;0.00;0.00;;;;;;;;;;5013631;28;20423;-82
2023/09/23 10:40:14;;;;;;;0.00;0.00;;;;;;;;;;5023485;28;20445;-85
2023/09/23 10:42:42;;;;;;;0.00;0.00;;;;;;;;;;5051517;28;20386;-84
2023/09/23 10:45:08;;;;;;;0.00;0.00;;;;;;;;;;5049107;28;20756;-84
2023/09/23 10:47:36;;;;;;;0.00;0.00;;;;;;;;;;5031748;28;20407;-84
2023/09/23 10:50:02;;;;;;;0.00;0.00;;;;;;;;;;5048490;28;20402;-85
2023/09/23 10:52:27;;;;;;;0.00;0.00;;;;;;;;;;5040215;28;20429;-84
2023/09/23 10:54:53;;;;;;;0.00;0.00;;;;;;;;;;5035454;28;20425;-84
2023/09/23 10:57:18;;;;;;;0.00;0.00;;;;;;;;;;5017616;28;20398;-84
2023/09/23 10:59:44;;;;;;;0.00;0.00;;;;;;;;;;5051133;28;20405;-85
2023/09/23 11:02:11;;;;;;;0.00;0.00;;;;;;;26.26;nan;100451.88;5022573;28;20418;-84
2023/09/23 11:04:36;;;;;;;0.00;0.00;;;;;;;26.34;nan;100450.63;5021437;28;20048;-85
2023/09/23 11:07:02;;;;;;;0.00;0.00;;;;;;;25.39;nan;100509.72;5028944;28;20029;-85
2023/09/23 11:09:28;;;;;;;0.00;0.00;;;;;;;25.30;nan;100435.41;5044964;28;20033;-85
2023/09/23 11:11:54;;;;;;;0.00;0.00;;;;;;;24.23;nan;100438.13;5031763;28;20517;-84
2023/09/23 11:14:21;;;;;;;0.00;0.00;;;;;;;23.06;nan;100413.19;5030014;28;20117;-84
2023/09/23 11:16:46;;;;;;;;;;;;;;;22.15;nan;100423.41;5015165;28;20042;-85
2023/09/23 11:19:12;;;;;;;;;;;;;;;21.50;nan;100432.19;5040824;28;19948;-83
2023/09/23 11:21:46;;;;;;;;;;;;;;;21.04;nan;100421.94;5040949;28;20398;-83
2023/09/23 11:24:12;;;;;;;;;;;;;;;;;;5029747;28;21016;-84
2023/09/23 11:26:40;;;;;;;;;;;;;;;21.06;nan;100419.84;5047055;28;19936;-84
2023/09/23 11:29:06;;;;;;;;;;;;;;;20.97;nan;100405.88;5043054;28;19917;-82
2023/09/23 11:31:31;;;;;;;;;;;;;;;20.79;nan;100420.94;5046357;28;19924;-84
2023/09/23 11:33:57;;;;;;;;;;;;;;;20.50;nan;100422.41;5036454;28;19916;-86
2023/09/23 11:36:22;;;;;;;;;;;;;;;20.14;nan;100433.81;5049259;28;19917;-83
2023/09/23 11:38:47;;;;;;;;;;;;;;;19.75;nan;100419.63;5051578;28;20006;-83
2023/09/23 11:41:12;;;;;;;;;;;;;;;19.47;nan;100419.94;5022810;28;20375;-84
2023/09/23 11:43:37;;;;;;;;;;;;;;;19.26;nan;100399.63;5033696;28;19913;-84
2023/09/23 11:46:03;;;;;;;;;;;;;;;19.13;nan;100395.09;5051808;28;19917;-84
2023/09/23 11:48:28;;;;;;;;;;;;;;;19.04;nan;100426.69;5043069;28;20004;-83
2023/09/23 11:50:53;;;;;;;;;;;;;;;19.15;nan;100401.09;5035733;28;19913;-85
2023/09/23 11:53:19;;;;;;;;;;;;;;;19.49;nan;100420.53;5025980;28;20324;-84
2023/09/23 11:55:45;;;;;;;;;;;;;;;19.68;nan;100430.38;5035613;28;19956;-84
2023/09/23 11:58:10;;;;;;;;;;;;;;;19.62;nan;100409.75;5015653;28;20012;-84
2023/09/23 12:00:35;;;;;;;;;;;;;;;19.56;nan;100432.06;5020439;28;19960;-84
2023/09/23 12:03:02;;;;;;;;;;;;;;;19.40;nan;100429.84;5020601;28;19917;-82
2023/09/23 12:05:29;;;;;;;;;;;;;;;19.22;nan;100426.00;5027197;28;19962;-84
2023/09/23 12:07:58;;;;;;;;;;;;;;;19.08;nan;100430.56;5039667;28;19990;-84
2023/09/23 12:10:23;;;;;;;;;;;;;;;18.96;nan;100410.81;5050342;28;20309;-85
2023/09/23 12:12:48;;;;;;;;;;;;;;;18.91;nan;100417.84;5045510;28;19917;-83
2023/09/23 12:15:14;;;;;;;;;;;;;;;;;;5043385;28;19994;-85
2023/09/23 12:17:39;;;;;;;;;;;;;;;19.24;nan;100413.22;5043058;28;20008;-83
2023/09/23 12:20:07;;;;;;;;;;;;;;;;;;5034046;28;19920;-85
2023/09/23 12:22:32;;;;;;;;;;;;;;;19.60;nan;100422.56;5032616;28;19921;-85
2023/09/23 12:24:57;;;;;;;;;;;;;;;19.71;nan;100403.16;5053959;28;20360;-86
2023/09/23 12:27:22;;;;;;;;;;;;;;;19.84;nan;100434.44;5029513;28;19913;-85
2023/09/23 12:29:47;;;;;;;;;;;;;;;20.02;nan;100436.41;5054737;28;20347;-83
2023/09/23 12:32:13;;;;;;;;;;;;;;;20.30;nan;100445.91;5028914;28;19965;-85
2023/09/23 12:34:38;;;;;;;;;;;;;;;20.49;nan;100453.00;5023506;28;20352;-82
2023/09/23 12:37:04;;;;;;;;;;;;;;;20.37;nan;100449.38;5054948;28;19970;-85
2023/09/23 12:39:29;;;;;;;;;;;;;;;20.27;nan;100444.47;5037094;28;19916;-84
2023/09/23 12:41:54;;;;;;;;;;;;;;;20.25;nan;100457.31;5025793;28;20414;-83
2023/09/23 12:44:19;;;;;;;;;;;;;;;20.22;nan;100446.19;5017312;28;20011;-82
2023/09/23 12:46:45;;;;;;;;;;;;;;;20.20;nan;100448.25;5041369;28;19917;-83
2023/09/23 12:49:11;;;;;;;;;;;;;;;20.20;nan;100448.25;5051112;28;19921;-85
2023/09/23 12:51:38;;;;;;;;;;;;;;;20.39;nan;100441.91;5043710;28;19928;-83
2023/09/23 12:54:03;;;;;;;;;;;;;;;20.48;nan;100456.72;5037626;28;19951;-84
2023/09/23 12:56:29;;;;;;;;;;;;;;;;;;5055800;28;19913;-84
2023/09/23 12:58:55;;;;;;;;;;;;;;;20.55;nan;100449.47;5038853;28;19916;-84
2023/09/23 13:01:20;;;;;;;;;;;;;;;20.58;nan;100457.09;5035208;28;20154;-85
2023/09/23 13:03:46;;;;;;;;;;;;;;;20.33;nan;100454.38;5050377;28;19927;-85
2023/09/23 13:06:11;;;;;;;;;;;;;;;20.30;nan;100449.41;5048523;28;19917;-84
2023/09/23 13:08:36;;;;;;;;;;;;;;;20.28;nan;100456.84;5057116;28;20413;-84
2023/09/23 13:11:02;;;;;;;;;;;;;;;20.27;nan;100451.72;5059434;28;19913;-84
2023/09/23 13:13:27;;;;;;;;;;;;;;;20.23;nan;100453.19;5045158;28;19917;-84
2023/09/23 13:15:52;;;;;;;;;;;;;;;20.30;nan;100460.16;5042702;28;19913;-84
2023/09/23 13:18:18;;;;;;;;;;;;;;;20.33;nan;100466.94;5037331;28;19916;-83
2023/09/23 13:20:43;;;;;;;;;;;;;;;;;;5019912;28;20370;-84
2023/09/23 13:23:08;;;;;;;;;;;;;;;20.14;nan;100460.66;5027337;28;20410;-84
2023/09/23 13:25:33;;;;;;;;;;;;;;;20.17;nan;100459.44;5037358;28;19920;-84
2023/09/23 13:27:58;;;;;;;;;;;;;;;;;;5040626;28;20461;-83
2023/09/23 13:30:24;;;;;;;;;;;;;;;20.41;nan;100455.97;5022908;28;19931;-83
2023/09/23 13:32:49;;;;;;;;;;;;;;;20.64;nan;100476.06;5021987;28;19917;-84
2023/09/23 13:35:14;;;;;;;;;;;;;;;20.87;nan;100475.44;5027201;28;19917;-84
2023/09/23 13:37:43;;;;;;;;;;;;;;;21.03;nan;100484.81;5036726;28;19912;-85
2023/09/23 13:40:08;;;;;;;;;;;;;;;21.19;nan;100495.00;5052789;28;20322;-84
2023/09/23 13:42:33;;;;;;;;;;;;;;;21.15;nan;100494.59;5025039;28;19928;-84
2023/09/23 13:44:59;;;;;;;;;;;;;;;21.10;nan;100493.66;5055359;28;20362;-86
2023/09/23 13:47:24;;;;;;;;;;;;;;;;;;5038765;28;19917;-84
2023/09/23 13:49:49;;;;;;;;;;;;;;;20.82;nan;100505.66;5058396;28;19919;-84
2023/09/23 13:52:14;;;;;;;;;;;;;;;20.73;nan;100502.44;5056789;28;19979;-84
2023/09/23 13:54:40;;;;;;;;;;;;;;;20.79;nan;100506.13;5035362;28;20472;-84
2023/09/23 13:57:05;;;;;;;;;;;;;;;20.89;nan;100501.06;5016334;28;20467;-85
2023/09/23 13:59:30;;;;;;;;;;;;;;;20.79;nan;100506.13;5018622;28;20294;-83